createdAt,value
2018-12-24T00:11:30.789Z,94029.88
2018-12-24T00:26:33.593Z,93993.45
2018-12-24T00:41:38.678Z,93980.97
2018-12-24T00:56:42.288Z,93960.66
2018-12-24T01:11:44.835Z,93934.59
2018-12-24T01:26:47.388Z,93910.27
2018-12-24T01:41:51.690Z,93900.16
2018-12-24T01:56:54.549Z,93880.98
2018-12-24T02:11:57.780Z,93885.20
2018-12-24T02:27:00.345Z,93877.05
2018-12-24T02:42:03.877Z,93822.63
2018-12-24T02:57:08.117Z,93790.50
2018-12-24T03:12:10.935Z,93794.70
2018-12-24T03:27:13.783Z,93728.66
2018-12-24T03:42:16.331Z,93692.57
2018-12-24T03:57:19.868Z,93649.00
2018-12-24T04:12:23.423Z,93606.47
2018-12-24T04:27:27.563Z,93595.89
2018-12-24T04:42:31.401Z,93553.85
2018-12-24T04:57:34.985Z,93540.58
2018-12-24T05:12:37.747Z,93503.27
2018-12-24T05:27:40.298Z,93507.98
2018-12-24T05:42:43.187Z,93510.11
2018-12-24T05:57:46.933Z,93498.67
2018-12-24T06:12:52.703Z,93499.63
2018-12-24T06:27:55.580Z,93483.98
2018-12-24T06:42:59.296Z,93463.28
2018-12-24T06:58:01.836Z,93451.77
2018-12-24T07:13:04.387Z,93421.16
2018-12-24T07:28:07.337Z,93403.50
2018-12-24T07:43:11.032Z,93357.92
2018-12-24T07:58:13.832Z,93313.31
2018-12-24T08:13:16.664Z,93336.89
2018-12-24T08:28:20.045Z,93311.55
2018-12-24T08:43:22.909Z,93328.45
2018-12-24T08:58:25.468Z,93253.48
2018-12-24T09:13:29.166Z,93175.94
2018-12-24T09:28:33.064Z,93135.98
2018-12-24T09:43:35.627Z,93021.59
2018-12-24T09:58:38.985Z,93000.72
2018-12-24T10:13:41.545Z,93001.45
2018-12-24T10:28:45.060Z,92966.80
2018-12-24T10:43:47.651Z,92893.48
2018-12-24T10:58:52.314Z,92838.05
2018-12-24T11:13:55.155Z,92790.93
2018-12-24T11:28:57.706Z,92801.65
2018-12-24T11:44:13.515Z,92733.19
2018-12-24T11:59:16.085Z,92751.47
2018-12-24T12:14:21.812Z,92814.03
2018-12-24T12:29:24.385Z,92779.66
2018-12-24T12:44:29.156Z,92740.08
2018-12-24T12:59:33.528Z,92768.95
2018-12-24T13:14:36.344Z,92731.45
2018-12-24T13:29:42.215Z,92684.42
2018-12-24T13:44:45.028Z,92672.30
2018-12-24T13:59:47.866Z,92665.75
2018-12-24T14:14:50.571Z,92663.78
2018-12-24T14:29:53.330Z,92582.66
2018-12-24T14:44:56.699Z,92605.73
2018-12-24T15:00:00.300Z,92631.91
2018-12-24T15:15:02.988Z,92676.08
2018-12-24T15:30:07.679Z,92788.34
2018-12-24T15:45:11.777Z,92997.33
2018-12-24T16:00:16.186Z,93058.50
2018-12-24T16:15:19.641Z,93169.04
2018-12-24T16:30:22.244Z,93204.82
2018-12-24T16:45:25.027Z,93238.56
2018-12-24T17:00:28.692Z,93266.86
2018-12-24T17:15:31.551Z,93302.25
2018-12-24T17:30:38.733Z,93315.86
2018-12-24T17:45:43.232Z,93343.53
2018-12-24T18:00:49.880Z,93319.27
2018-12-24T18:15:52.722Z,93356.83
2018-12-24T18:30:57.447Z,93411.77
2018-12-24T18:46:00.171Z,93420.44
2018-12-24T19:01:03.468Z,93422.55
2018-12-24T19:16:06.023Z,93435.59
2018-12-24T19:31:08.572Z,93490.87
2018-12-24T19:46:13.277Z,93507.67
2018-12-24T20:01:16.660Z,93525.75
2018-12-24T20:16:20.328Z,93568.50
2018-12-24T20:31:23.355Z,93584.70
2018-12-24T20:46:26.694Z,93582.70
2018-12-24T21:01:29.571Z,93613.89
2018-12-24T21:16:32.825Z,93677.52
2018-12-24T21:31:37.682Z,93679.22
2018-12-24T21:46:41.147Z,93624.20
2018-12-24T22:01:43.713Z,93637.95
2018-12-24T22:16:46.274Z,93671.08
2018-12-24T22:31:48.838Z,93673.62
2018-12-24T22:46:52.644Z,93660.09
2018-12-24T23:01:55.400Z,93668.44
2018-12-24T23:17:01.094Z,93683.37
2018-12-24T23:32:03.989Z,93688.38
2018-12-24T23:47:06.715Z,93704.20
